Time;durP1;ratioP1;P1;durP2;ratioP2;P2;SDS_P1;SDS_P2;PMS_P1;PMS_P2;Temp;Humidity;BMP_temperature;BMP_pressure;BME280_temperature;BME280_humidity;BME280_pressure;Samples;Min_cycle;Max_cycle;Signal;HPM_P1;HPM_P2
2023/03/21 00:02:11;;;;;;;3.87;1.70;;;7.60;99.90;;;;;;5053133;28;20481;-55
2023/03/21 00:04:37;;;;;;;2.40;1.97;;;7.60;99.90;;;;;;5052835;28;20992;-54
2023/03/21 00:07:04;;;;;;;1.87;1.67;;;7.80;99.90;;;;;;5053001;28;20473;-55
2023/03/21 00:09:31;;;;;;;1.60;1.50;;;8.00;99.90;;;;;;5032844;28;20520;-55
2023/03/21 00:12:00;;;;;;;2.00;1.80;;;7.80;99.90;;;;;;5044597;28;20508;-54
2023/03/21 00:14:29;;;;;;;3.17;1.50;;;7.60;99.90;;;;;;5052999;28;20481;-54
2023/03/21 00:16:58;;;;;;;1.80;1.70;;;7.60;99.90;;;;;;5053185;28;20811;-55
2023/03/21 00:19:25;;;;;;;2.07;1.83;;;7.70;99.90;;;;;;5053024;28;20478;-54
2023/03/21 00:21:54;;;;;;;1.80;1.50;;;7.90;99.90;;;;;;5052543;28;20485;-55
2023/03/21 00:24:22;;;;;;;2.83;1.93;;;7.80;99.90;;;;;;5052612;28;20465;-54
2023/03/21 00:26:49;;;;;;;3.93;2.63;;;7.70;99.90;;;;;;5052883;28;20504;-54
2023/03/21 00:29:16;;;;;;;2.37;1.50;;;7.10;99.90;;;;;;5052997;28;20971;-54
2023/03/21 00:31:43;;;;;;;2.13;1.57;;;7.10;99.90;;;;;;5052679;28;20437;-55
2023/03/21 00:34:11;;;;;;;2.43;2.07;;;7.30;99.90;;;;;;5052485;28;20517;-55
2023/03/21 00:36:38;;;;;;;1.97;1.77;;;7.40;99.90;;;;;;5052708;28;20437;-55
2023/03/21 00:39:05;;;;;;;3.00;1.80;;;7.50;99.90;;;;;;5052797;28;20486;-55
2023/03/21 00:41:32;;;;;;;1.53;1.27;;;7.70;99.90;;;;;;5052442;28;20812;-54
2023/03/21 00:43:59;;;;;;;2.77;2.30;;;7.70;99.90;;;;;;5052293;28;20512;-55
2023/03/21 00:46:26;;;;;;;2.30;1.50;;;7.80;99.90;;;;;;5052532;28;20480;-56
2023/03/21 00:48:53;;;;;;;1.60;1.47;;;7.70;99.90;;;;;;5052449;28;20481;-55
2023/03/21 00:51:25;;;;;;;1.87;1.67;;;7.80;99.90;;;;;;5052367;28;20533;-55
2023/03/21 00:53:53;;;;;;;1.70;1.57;;;7.80;99.90;;;;;;5052323;28;20469;-55
2023/03/21 00:56:20;;;;;;;3.30;1.83;;;7.60;99.90;;;;;;5052211;28;20536;-54
2023/03/21 00:58:47;;;;;;;2.00;1.90;;;7.60;99.90;;;;;;5052222;28;20469;-54
2023/03/21 01:01:14;;;;;;;2.23;2.03;;;7.50;99.90;;;;;;5052086;28;20528;-54
2023/03/21 01:03:46;;;;;;;2.27;1.97;;;7.40;99.90;;;;;;5051860;28;20646;-54
2023/03/21 01:06:18;;;;;;;3.20;3.00;;;7.50;99.90;;;;;;5051856;28;20445;-54
2023/03/21 01:08:48;;;;;;;1.90;1.80;;;7.50;99.90;;;;;;5052028;28;20446;-54
2023/03/21 01:11:18;;;;;;;1.83;1.73;;;7.20;99.90;;;;;;5051644;28;20438;-55
2023/03/21 01:13:45;;;;;;;2.00;1.70;;;7.20;99.90;;;;;;5052074;28;20560;-55
2023/03/21 01:16:12;;;;;;;3.30;1.83;;;7.10;99.90;;;;;;5051294;28;20505;-53
2023/03/21 01:18:40;;;;;;;2.13;1.67;;;7.10;99.90;;;;;;5051873;28;20480;-54
2023/03/21 01:21:10;;;;;;;1.33;1.23;;;7.30;99.90;;;;;;5051387;28;20474;-54
2023/03/21 01:23:37;;;;;;;1.77;1.53;;;7.30;99.90;;;;;;5051625;28;20486;-55
2023/03/21 01:26:05;;;;;;;2.27;1.60;;;7.50;99.90;;;;;;5051783;28;20480;-54
2023/03/21 01:28:33;;;;;;;2.00;1.80;;;7.60;99.90;;;;;;5051633;28;20477;-55
2023/03/21 01:31:02;;;;;;;2.00;1.27;;;7.50;99.90;;;;;;5051538;28;20537;-54
2023/03/21 01:33:29;;;;;;;5.50;1.80;;;7.50;99.90;;;;;;5051863;28;20563;-54
2023/03/21 01:35:56;;;;;;;2.10;1.67;;;7.30;99.90;;;;;;5051520;28;20512;-54
2023/03/21 01:38:24;;;;;;;4.20;2.10;;;7.30;99.90;;;;;;5051685;28;20540;-54
2023/03/21 01:40:51;;;;;;;2.53;1.43;;;7.00;99.90;;;;;;5050800;28;20982;-55
2023/03/21 01:43:27;;;;;;;3.13;2.03;;;6.90;99.90;;;;;;5051091;28;20564;-54
2023/03/21 01:46:25;;;;;;;2.10;1.73;;;6.90;99.90;;;;;;5051329;28;20478;-54
2023/03/21 01:48:55;;;;;;;2.00;1.70;;;7.10;99.90;;;;;;5051148;28;21011;-55
2023/03/21 01:51:23;;;;;;;1.83;1.30;;;7.20;99.90;;;;;;5051402;28;20476;-55
2023/03/21 01:53:50;;;;;;;2.20;2.00;;;7.40;99.90;;;;;;5051502;28;20500;-54
2023/03/21 01:56:23;;;;;;;2.30;2.10;;;7.50;99.90;;;;;;5050981;28;21087;-55
2023/03/21 01:58:55;;;;;;;2.37;1.83;;;7.50;99.90;;;;;;5051297;28;20453;-55
2023/03/21 02:01:22;;;;;;;1.97;1.77;;;7.60;99.90;;;;;;5050932;28;20801;-55
2023/03/21 02:03:51;;;;;;;2.00;1.50;;;7.50;99.90;;;;;;5050321;28;20991;-55
2023/03/21 02:06:29;;;;;;;2.17;1.77;;;7.40;99.90;;;;;;5050905;28;20528;-55
2023/03/21 02:08:58;;;;;;;2.73;2.53;;;7.10;99.90;;;;;;5046832;28;20445;-54
2023/03/21 02:11:26;;;;;;;2.20;2.00;;;6.60;99.90;;;;;;5050593;28;20986;-55
2023/03/21 02:13:55;;;;;;;3.23;2.50;;;6.60;99.90;;;;;;5050473;28;21002;-55
2023/03/21 02:16:31;;;;;;;3.67;3.10;;;6.50;99.90;;;;;;5031055;28;20568;-54
2023/03/21 02:19:05;;;;;;;3.10;2.23;;;6.50;99.90;;;;;;5040862;28;20470;-55
2023/03/21 02:21:59;;;;;;;2.80;2.60;;;6.60;99.90;;;;;;5050383;28;20495;-55
2023/03/21 02:24:58;;;;;;;2.47;2.27;;;7.00;99.90;;;;;;5050156;28;20508;-55
2023/03/21 02:27:26;;;;;;;4.73;2.57;;;7.10;99.90;;;;;;5049930;28;20442;-55
2023/03/21 02:30:30;;;;;;;3.30;2.43;;;7.10;99.90;;;;;;5050140;28;20908;-54
2023/03/21 02:33:30;;;;;;;2.63;2.43;;;7.00;99.90;;;;;;5045306;28;20445;-55
2023/03/21 02:36:16;;;;;;;2.10;1.90;;;6.90;99.90;;;;;;5050743;28;20563;-55
2023/03/21 02:38:52;;;;;;;1.87;1.77;;;7.00;99.90;;;;;;5049910;28;20481;-56
2023/03/21 02:41:26;;;;;;;1.90;1.50;;;7.10;99.90;;;;;;5030943;28;20481;-55
2023/03/21 02:43:58;;;;;;;1.67;1.57;;;7.20;99.90;;;;;;5046048;28;20470;-55
2023/03/21 02:46:33;;;;;;;3.00;2.13;;;7.30;99.90;;;;;;5050387;28;20477;-54
2023/03/21 02:49:07;;;;;;;2.57;1.60;;;7.40;99.90;;;;;;5050028;28;20441;-55
2023/03/21 02:51:37;;;;;;;2.40;2.20;;;7.30;99.90;;;;;;5050287;28;20441;-55
2023/03/21 02:54:09;;;;;;;3.87;3.23;;;7.20;99.90;;;;;;5054042;28;21031;-55
2023/03/21 02:56:39;;;;;;;2.93;2.67;;;7.30;99.90;;;;;;5054911;28;20480;-55
2023/03/21 02:59:07;;;;;;;4.47;3.00;;;7.30;99.90;;;;;;5054317;28;20544;-55
2023/03/21 03:01:35;;;;;;;3.73;3.17;;;7.20;99.90;;;;;;5053970;28;20442;-54
2023/03/21 03:04:02;;;;;;;4.13;3.70;;;7.20;99.90;;;;;;5053607;28;20484;-54
2023/03/21 03:06:36;;;;;;;3.53;3.10;;;7.30;99.90;;;;;;5053833;28;20533;-55
2023/03/21 03:09:23;;;;;;;2.93;2.57;;;7.30;99.90;;;;;;5054601;28;20437;-55
2023/03/21 03:11:55;;;;;;;3.40;3.10;;;7.40;99.90;;;;;;5054004;28;21011;-54
2023/03/21 03:14:41;;;;;;;3.83;3.03;;;7.40;99.90;;;;;;5053855;28;20553;-54
2023/03/21 03:17:21;;;;;;;7.63;4.87;;;7.30;99.90;;;;;;5054470;28;20437;-54
2023/03/21 03:20:01;;;;;;;4.07;3.17;;;7.00;99.90;;;;;;5054010;28;20952;-55
2023/03/21 03:22:32;;;;;;;2.90;2.10;;;7.10;99.90;;;;;;5053374;28;21308;-54
2023/03/21 03:25:05;;;;;;;4.43;2.60;;;7.10;99.90;;;;;;5052828;28;20453;-55
2023/03/21 03:27:36;;;;;;;2.67;2.03;;;7.30;99.90;;;;;;5052207;28;20477;-55
2023/03/21 03:30:08;;;;;;;2.40;1.90;;;7.30;99.90;;;;;;5052400;28;20825;-55
2023/03/21 03:32:43;;;;;;;2.73;2.30;;;7.30;99.90;;;;;;5051947;28;20882;-55
2023/03/21 03:35:13;;;;;;;54.10;28.20;;;7.30;99.90;;;;;;5052402;28;20477;-55
2023/03/21 03:37:41;;;;;;;10.00;6.47;;;7.40;99.90;;;;;;5052372;28;20445;-55
2023/03/21 03:40:15;;;;;;;3.83;2.50;;;7.40;99.90;;;;;;5052345;28;20809;-55
2023/03/21 03:42:47;;;;;;;4.13;2.60;;;7.20;99.90;;;;;;5053820;28;20975;-55
2023/03/21 03:45:15;;;;;;;2.03;1.80;;;7.30;99.90;;;;;;5053746;28;20528;-55
2023/03/21 03:47:45;;;;;;;2.70;2.30;;;7.40;99.90;;;;;;5053529;28;20477;-54
2023/03/21 03:50:17;;;;;;;2.47;2.27;;;7.50;99.90;;;;;;5053343;28;20994;-55
2023/03/21 03:52:48;;;;;;;2.67;2.00;;;7.60;99.90;;;;;;5053260;28;20481;-54
2023/03/21 03:55:21;;;;;;;2.40;2.20;;;7.60;99.90;;;;;;5053203;28;20552;-55
2023/03/21 03:57:49;;;;;;;2.27;2.07;;;7.70;99.90;;;;;;5053536;28;20959;-54
2023/03/21 04:00:17;;;;;;;2.67;1.80;;;7.60;99.90;;;;;;5052898;28;20520;-54
2023/03/21 04:02:45;;;;;;;3.47;2.07;;;7.40;99.90;;;;;;5053070;28;20438;-54
2023/03/21 04:05:13;;;;;;;2.60;2.40;;;7.10;99.90;;;;;;5053066;28;20928;-54
2023/03/21 04:07:40;;;;;;;2.77;1.73;;;7.10;99.90;;;;;;5051955;28;20473;-54
2023/03/21 04:10:07;;;;;;;3.47;2.30;;;7.30;99.90;;;;;;5052571;28;20518;-54
2023/03/21 04:12:35;;;;;;;2.80;1.90;;;7.40;99.90;;;;;;5052757;28;20503;-54
2023/03/21 04:15:02;;;;;;;2.53;2.33;;;7.50;99.90;;;;;;5053075;28;20544;-54
2023/03/21 04:17:30;;;;;;;2.77;2.40;;;7.50;99.90;;;;;;5052592;28;20532;-54
2023/03/21 04:19:57;;;;;;;2.80;2.23;;;7.40;99.90;;;;;;5051869;28;21008;-54
2023/03/21 04:22:24;;;;;;;2.27;2.07;;;7.30;99.90;;;;;;5032898;28;20895;-55
2023/03/21 04:24:52;;;;;;;2.07;1.87;;;7.30;99.90;;;;;;5050033;28;20519;-55
2023/03/21 04:27:19;;;;;;;3.07;2.23;;;7.20;99.90;;;;;;5052940;28;20477;-54
2023/03/21 04:29:48;;;;;;;2.67;2.10;;;7.20;99.90;;;;;;5052621;28;20456;-54
2023/03/21 04:32:16;;;;;;;3.33;2.57;;;7.10;99.90;;;;;;5051750;28;20449;-54
2023/03/21 04:34:48;;;;;;;3.77;2.90;;;6.90;99.90;;;;;;5036017;28;20466;-54
2023/03/21 04:37:16;;;;;;;2.10;1.90;;;6.80;99.90;;;;;;5036381;28;20826;-55
2023/03/21 04:39:45;;;;;;;3.33;2.90;;;6.80;99.90;;;;;;5052814;28;20534;-54
2023/03/21 04:42:13;;;;;;;12.80;10.20;;;6.80;99.90;;;;;;5052200;28;20449;-54
2023/03/21 04:44:40;;;;;;;15.83;13.07;;;6.90;99.90;;;;;;5083370;22;20622;-82
2023/03/21 04:47:09;;;;;;;6.00;3.80;;;7.10;99.90;;;;;;5059719;28;20485;-84
2023/03/21 04:49:37;;;;;;;3.20;2.73;;;7.30;99.90;;;;;;5057505;28;20442;-86
2023/03/21 04:52:04;;;;;;;3.30;3.00;;;7.40;99.90;;;;;;5056785;28;20429;-83
2023/03/21 04:54:32;;;;;;;3.03;2.73;;;7.20;99.90;;;;;;5055681;28;20446;-83
2023/03/21 04:56:59;;;;;;;3.57;2.93;;;7.30;99.90;;;;;;5077856;22;20579;-52
2023/03/21 04:59:26;;;;;;;2.90;2.70;;;7.40;99.90;;;;;;5072126;28;20479;-50
2023/03/21 05:01:55;;;;;;;4.77;3.03;;;7.40;99.90;;;;;;5071511;28;20498;-51
2023/03/21 05:04:24;;;;;;;3.87;2.70;;;7.30;99.90;;;;;;5061502;28;20466;-49
2023/03/21 05:06:52;;;;;;;4.03;3.63;;;7.10;99.90;;;;;;5053550;28;20429;-50
2023/03/21 05:09:20;;;;;;;5.57;4.80;;;6.90;99.90;;;;;;5054267;28;20445;-49
2023/03/21 05:11:47;;;;;;;5.63;5.13;;;6.90;99.90;;;;;;5053226;28;20474;-50
2023/03/21 05:14:17;;;;;;;7.60;4.40;;;7.20;99.90;;;;;;5052587;28;20453;-50
2023/03/21 05:16:47;;;;;;;4.47;3.80;;;7.20;99.90;;;;;;5035903;28;21078;-50
2023/03/21 05:19:16;;;;;;;3.80;3.50;;;7.20;99.90;;;;;;5039857;28;20445;-49
2023/03/21 05:21:44;;;;;;;4.00;2.80;;;7.40;99.90;;;;;;5052864;28;20944;-49
2023/03/21 05:24:15;;;;;;;15.73;9.70;;;7.30;99.90;;;;;;5052782;28;20879;-50
2023/03/21 05:26:48;;;;;;;4.80;4.30;;;7.20;99.90;;;;;;5039397;28;20473;-51
2023/03/21 05:29:16;;;;;;;9.67;8.53;;;7.20;99.90;;;;;;5032407;28;20514;-51
2023/03/21 05:31:43;;;;;;;7.33;5.13;;;6.90;99.90;;;;;;5038037;28;20505;-51
2023/03/21 05:34:10;;;;;;;3.30;3.00;;;7.10;99.90;;;;;;5050923;28;20465;-51
2023/03/21 05:36:37;;;;;;;3.53;3.23;;;7.10;99.90;;;;;;5036588;28;20931;-51
2023/03/21 05:39:06;;;;;;;6.83;2.43;;;7.20;99.90;;;;;;5041874;28;20503;-51
2023/03/21 05:41:33;;;;;;;3.07;2.60;;;7.20;99.90;;;;;;5040038;28;20442;-49
2023/03/21 05:44:00;;;;;;;2.70;2.50;;;6.90;99.90;;;;;;5040600;28;21018;-50
2023/03/21 05:46:27;;;;;;;3.40;2.37;;;6.90;99.90;;;;;;5052585;28;20441;-48
2023/03/21 05:48:54;;;;;;;2.50;2.30;;;7.10;99.90;;;;;;5051302;28;20452;-50
2023/03/21 05:51:22;;;;;;;2.10;1.80;;;7.30;99.90;;;;;;5041378;28;20474;-49
2023/03/21 05:53:49;;;;;;;3.07;2.40;;;7.30;99.90;;;;;;5035676;28;20898;-50
2023/03/21 05:56:17;;;;;;;2.73;2.40;;;7.20;99.90;;;;;;5045098;28;20501;-51
2023/03/21 05:58:45;;;;;;;2.90;2.00;;;7.30;99.90;;;;;;5040785;28;20533;-50
2023/03/21 06:01:12;;;;;;;4.30;3.13;;;7.20;99.90;;;;;;5045047;28;20447;-50
2023/03/21 06:03:39;;;;;;;3.97;2.57;;;7.30;99.90;;;;;;5040645;28;20462;-50
2023/03/21 06:06:07;;;;;;;3.67;3.37;;;7.10;99.90;;;;;;5040584;28;20489;-49
2023/03/21 06:08:34;;;;;;;3.60;2.87;;;6.90;99.90;;;;;;5039870;28;20450;-49
2023/03/21 06:11:01;;;;;;;3.93;3.50;;;6.90;99.90;;;;;;5046429;28;20478;-49
2023/03/21 06:13:31;;;;;;;5.20;3.90;;;7.10;99.90;;;;;;5046578;28;20496;-49
2023/03/21 06:15:58;;;;;;;6.30;4.40;;;7.40;99.90;;;;;;5040381;28;20480;-50
2023/03/21 06:18:25;;;;;;;5.87;4.53;;;7.50;99.90;;;;;;5047370;28;20980;-51
2023/03/21 06:20:53;;;;;;;6.83;3.40;;;7.40;99.90;;;;;;5041783;28;20445;-50
2023/03/21 06:23:20;;;;;;;5.33;3.80;;;7.30;99.90;;;;;;5050598;28;20877;-50
2023/03/21 06:25:48;;;;;;;3.20;2.90;;;7.20;99.90;;;;;;5045912;28;20449;-50
2023/03/21 06:28:15;;;;;;;4.10;3.70;;;7.20;99.90;;;;;;5045304;28;20999;-50
2023/03/21 06:30:44;;;;;;;4.83;4.33;;;7.30;99.90;;;;;;5046047;28;20484;-50
2023/03/21 06:33:11;;;;;;;5.67;4.83;;;7.30;99.90;;;;;;5050003;28;20480;-50
2023/03/21 06:35:38;;;;;;;5.43;4.87;;;7.30;99.90;;;;;;5054263;28;20528;-49
2023/03/21 06:38:05;;;;;;;5.73;5.17;;;7.30;99.90;;;;;;5055411;28;20442;-50
2023/03/21 06:40:32;;;;;;;5.73;4.00;;;7.10;99.90;;;;;;5056050;28;20441;-50
2023/03/21 06:42:59;;;;;;;4.90;4.47;;;7.00;99.90;;;;;;5056392;28;20480;-51
2023/03/21 06:45:26;;;;;;;4.70;2.83;;;7.10;99.90;;;;;;5056208;28;20466;-50
2023/03/21 06:47:55;;;;;;;3.20;2.53;;;7.20;99.90;;;;;;5056102;28;20491;-50
2023/03/21 06:50:21;;;;;;;2.30;2.10;;;7.20;99.90;;;;;;5054073;28;20520;-50
2023/03/21 06:52:49;;;;;;;3.27;2.73;;;7.30;99.90;;;;;;5047581;28;20520;-51
2023/03/21 06:55:18;;;;;;;6.40;5.80;;;7.50;99.90;;;;;;5054340;28;20496;-50
2023/03/21 06:57:45;;;;;;;10.40;8.90;;;7.70;99.90;;;;;;5054584;28;20473;-51
2023/03/21 07:00:15;;;;;;;12.23;11.10;;;7.70;99.90;;;;;;5053998;28;20513;-50
2023/03/21 07:02:42;;;;;;;7.60;6.90;;;7.80;99.90;;;;;;5054596;28;20441;-51
2023/03/21 07:05:10;;;;;;;6.50;4.73;;;7.90;99.90;;;;;;5054455;28;20927;-50
2023/03/21 07:07:38;;;;;;;5.07;4.50;;;8.00;99.90;;;;;;5054184;28;21029;-50
2023/03/21 07:10:06;;;;;;;7.87;3.30;;;8.10;99.90;;;;;;5053928;28;21015;-51
2023/03/21 07:12:34;;;;;;;5.50;3.30;;;8.00;99.90;;;;;;5054105;28;20469;-50
2023/03/21 07:15:01;;;;;;;3.37;2.90;;;7.60;99.90;;;;;;5053663;28;20967;-51
2023/03/21 07:17:29;;;;;;;4.10;3.57;;;7.60;99.90;;;;;;5054157;28;20572;-51
2023/03/21 07:19:55;;;;;;;3.40;2.90;;;7.50;99.90;;;;;;5053475;28;20445;-51
2023/03/21 07:22:24;;;;;;;3.30;3.00;;;7.80;99.90;;;;;;5051998;28;20445;-51
2023/03/21 07:24:51;;;;;;;4.60;3.63;;;7.90;99.90;;;;;;5053750;28;20497;-50
2023/03/21 07:27:18;;;;;;;5.83;3.80;;;8.00;99.90;;;;;;5053907;28;20540;-51
2023/03/21 07:29:46;;;;;;;4.37;3.70;;;7.90;99.90;;;;;;5053983;28;20524;-50
2023/03/21 07:32:13;;;;;;;4.93;3.40;;;8.00;99.90;;;;;;5053607;28;20469;-51
2023/03/21 07:34:40;;;;;;;4.30;3.90;;;7.90;99.90;;;;;;5052911;28;20548;-50
2023/03/21 07:37:07;;;;;;;4.40;4.00;;;7.90;99.90;;;;;;5051814;28;20485;-51
2023/03/21 07:39:37;;;;;;;9.20;6.60;;;8.00;99.90;;;;;;5050560;28;20507;-51
2023/03/21 07:42:04;;;;;;;5.33;3.60;;;8.10;99.90;;;;;;5052286;28;20496;-51
2023/03/21 07:44:32;;;;;;;3.50;3.00;;;8.00;99.90;;;;;;5052878;28;20497;-50
2023/03/21 07:46:59;;;;;;;3.67;3.10;;;8.00;99.90;;;;;;5052648;28;20437;-51
2023/03/21 07:49:26;;;;;;;3.50;3.10;;;7.90;99.90;;;;;;5052985;28;20469;-51
2023/03/21 07:51:53;;;;;;;8.60;3.10;;;7.90;99.90;;;;;;5053057;28;20492;-50
2023/03/21 07:54:21;;;;;;;6.47;3.00;;;7.70;99.90;;;;;;5053306;28;20470;-51
2023/03/21 07:56:50;;;;;;;3.10;2.70;;;7.90;99.90;;;;;;5053314;28;20487;-51
2023/03/21 07:59:17;;;;;;;4.40;3.27;;;8.00;99.90;;;;;;5053191;28;21011;-51
2023/03/21 08:01:44;;;;;;;3.90;3.50;;;7.90;99.90;;;;;;5052493;28;20482;-51
2023/03/21 08:04:11;;;;;;;4.37;3.30;;;8.10;99.90;;;;;;5052373;28;20475;-50
2023/03/21 08:06:38;;;;;;;5.67;2.60;;;8.30;99.90;;;;;;5053100;28;20963;-50
2023/03/21 08:09:05;;;;;;;6.00;3.30;;;8.50;99.90;;;;;;5053279;28;20473;-50
2023/03/21 08:11:31;;;;;;;5.33;2.50;;;8.60;99.90;;;;;;5053342;28;20472;-51
2023/03/21 08:14:01;;;;;;;3.30;2.87;;;8.60;99.90;;;;;;5053030;28;20501;-51
2023/03/21 08:16:28;;;;;;;3.37;2.47;;;8.60;99.90;;;;;;5052756;28;20928;-51
2023/03/21 08:18:55;;;;;;;4.63;2.87;;;8.70;99.90;;;;;;5052992;28;20484;-50
2023/03/21 08:21:21;;;;;;;2.37;2.17;;;8.70;99.90;;;;;;5052841;28;20484;-51
2023/03/21 08:23:48;;;;;;;4.80;2.50;;;8.80;99.90;;;;;;5052880;28;20500;-50
2023/03/21 08:26:17;;;;;;;2.80;2.37;;;8.80;99.90;;;;;;5053125;28;20488;-51
2023/03/21 08:28:44;;;;;;;2.10;1.90;;;8.90;99.90;;;;;;5052823;28;20839;-50
2023/03/21 08:31:13;;;;;;;2.67;1.80;;;8.90;99.90;;;;;;5052341;28;20529;-50
2023/03/21 08:33:40;;;;;;;2.80;2.27;;;8.90;99.90;;;;;;5051590;28;20462;-51
2023/03/21 08:36:08;;;;;;;2.50;2.30;;;9.00;99.90;;;;;;5052917;28;20486;-51
2023/03/21 08:38:36;;;;;;;5.30;2.90;;;8.80;99.90;;;;;;5052674;28;20806;-50
2023/03/21 08:41:03;;;;;;;3.80;2.40;;;8.60;99.90;;;;;;5052457;28;20456;-51
2023/03/21 08:43:30;;;;;;;2.23;1.90;;;8.60;99.90;;;;;;5051930;28;20565;-50
2023/03/21 08:45:57;;;;;;;2.87;2.10;;;8.80;99.90;;;;;;5052261;28;20445;-50
2023/03/21 08:48:25;;;;;;;3.30;2.40;;;9.00;99.90;;;;;;5052374;28;20466;-50
2023/03/21 08:50:52;;;;;;;3.13;2.43;;;9.00;99.90;;;;;;5052478;28;20486;-50
2023/03/21 08:53:19;;;;;;;2.57;2.00;;;9.00;99.90;;;;;;5052169;28;20660;-50
2023/03/21 08:55:46;;;;;;;2.30;2.10;;;9.20;99.90;;;;;;5051972;28;20480;-50
2023/03/21 08:58:13;;;;;;;2.57;2.10;;;9.30;99.90;;;;;;5052248;28;20513;-50
2023/03/21 09:00:39;;;;;;;2.80;2.13;;;9.40;99.90;;;;;;5051560;28;20525;-50
2023/03/21 09:03:06;;;;;;;2.10;1.90;;;9.40;99.90;;;;;;5051783;28;20478;-50
2023/03/21 09:05:35;;;;;;;1.90;1.70;;;9.40;99.90;;;;;;5051470;28;20537;-49
2023/03/21 09:08:02;;;;;;;2.30;1.63;;;9.40;99.90;;;;;;5051816;28;20438;-50
2023/03/21 09:10:30;;;;;;;2.63;1.93;;;9.50;99.90;;;;;;5052158;28;20446;-48
2023/03/21 09:12:57;;;;;;;1.80;1.30;;;9.50;99.90;;;;;;5051760;28;20849;-48
2023/03/21 09:15:27;;;;;;;3.40;1.80;;;9.50;99.90;;;;;;5051972;28;20546;-48
2023/03/21 09:17:57;;;;;;;3.00;2.60;;;9.60;99.90;;;;;;5051636;28;20469;-50
2023/03/21 09:20:29;;;;;;;2.80;2.20;;;9.70;99.90;;;;;;5051739;28;20503;-50
2023/03/21 09:22:58;;;;;;;7.80;2.50;;;9.70;99.90;;;;;;5051446;28;20444;-50
2023/03/21 09:25:29;;;;;;;3.50;2.50;;;9.80;99.90;;;;;;5051408;28;20972;-51
2023/03/21 09:27:57;;;;;;;3.53;2.43;;;9.80;99.90;;;;;;5051734;28;20444;-49
2023/03/21 09:30:24;;;;;;;3.60;3.00;;;9.80;99.90;;;;;;5051275;28;20930;-48
2023/03/21 09:32:52;;;;;;;3.47;2.77;;;9.70;99.90;;;;;;5051145;28;20456;-49
2023/03/21 09:35:20;;;;;;;3.07;2.70;;;9.80;99.90;;;;;;5050456;28;20553;-48
2023/03/21 09:37:48;;;;;;;2.70;2.50;;;9.80;99.90;;;;;;5051050;28;20500;-48
2023/03/21 09:40:21;;;;;;;3.20;2.53;;;9.70;99.90;;;;;;5050526;28;20469;-48
2023/03/21 09:42:58;;;;;;;2.67;2.47;;;9.50;99.90;;;;;;5050123;28;20842;-48
2023/03/21 09:45:34;;;;;;;3.50;2.50;;;9.70;99.90;;;;;;5050388;28;20466;-49
2023/03/21 09:48:01;;;;;;;3.83;3.03;;;9.90;99.90;;;;;;5051065;28;20444;-49
2023/03/21 09:50:31;;;;;;;2.40;2.20;;;9.90;99.90;;;;;;5048483;28;20809;-49
2023/03/21 09:53:00;;;;;;;4.33;2.80;;;10.10;99.90;;;;;;5036284;28;20455;-49
2023/03/21 09:55:31;;;;;;;2.50;2.23;;;10.10;99.90;;;;;;5050743;28;20463;-49
2023/03/21 09:58:05;;;;;;;2.50;2.30;;;10.00;99.90;;;;;;5051213;28;21014;-49
2023/03/21 10:00:37;;;;;;;4.13;3.10;;;10.00;99.90;;;;;;5050113;28;20976;-49
2023/03/21 10:03:16;;;;;;;3.10;2.80;;;10.00;99.90;;;;;;5050281;28;21068;-48
2023/03/21 10:05:45;;;;;;;2.23;2.00;;;10.30;99.90;;;;;;5049111;28;20465;-49
2023/03/21 10:08:18;;;;;;;3.00;2.70;;;10.50;99.90;;;;;;5049230;28;20488;-48
2023/03/21 10:10:49;;;;;;;3.10;2.30;;;10.60;99.90;;;;;;5050109;28;20480;-48
2023/03/21 10:13:20;;;;;;;4.27;2.30;;;10.70;99.90;;;;;;5050117;28;21008;-48
2023/03/21 10:15:47;;;;;;;3.13;2.10;;;10.80;99.90;;;;;;5050522;28;20891;-49
2023/03/21 10:18:20;;;;;;;2.53;1.83;;;10.90;99.90;;;;;;5050318;28;20559;-49
2023/03/21 10:20:47;;;;;;;2.20;2.00;;;10.80;99.90;;;;;;5050519;28;20535;-49
2023/03/21 10:23:18;;;;;;;2.37;1.80;;;10.80;99.90;;;;;;5050000;28;20470;-49
2023/03/21 10:25:50;;;;;;;32.77;9.33;;;10.90;99.90;;;;;;5051111;28;20539;-48
2023/03/21 10:28:20;;;;;;;6.67;2.83;;;11.20;99.90;;;;;;5050763;28;20482;-48
2023/03/21 10:30:50;;;;;;;2.30;2.10;;;11.20;99.90;;;;;;5050896;28;20475;-48
2023/03/21 10:33:20;;;;;;;2.47;1.80;;;11.20;99.90;;;;;;5050422;28;20524;-49
2023/03/21 10:35:51;;;;;;;2.80;2.07;;;11.30;99.90;;;;;;5050166;28;20452;-49
2023/03/21 10:38:21;;;;;;;2.07;1.40;;;11.30;99.90;;;;;;5050221;28;20577;-49
2023/03/21 10:40:49;;;;;;;2.83;2.30;;;11.30;99.90;;;;;;5050751;28;20522;-48
2023/03/21 10:43:20;;;;;;;2.17;1.70;;;11.30;99.90;;;;;;5049943;28;20479;-49
2023/03/21 10:45:47;;;;;;;2.20;1.57;;;11.30;99.90;;;;;;5050465;28;20441;-49
2023/03/21 10:48:15;;;;;;;2.13;1.90;;;11.30;99.90;;;;;;5050623;28;20482;-49
2023/03/21 10:50:42;;;;;;;2.13;1.90;;;11.30;99.90;;;;;;5050369;28;20487;-48
2023/03/21 10:53:17;;;;;;;3.23;2.10;;;11.30;99.90;;;;;;5050283;28;20524;-48
2023/03/21 10:55:52;;;;;;;2.23;1.50;;;11.30;99.90;;;;;;5050625;28;20526;-49
2023/03/21 10:58:26;;;;;;;1.67;1.57;;;11.40;99.90;;;;;;5050935;28;20802;-49
2023/03/21 11:00:57;;;;;;;1.60;1.50;;;11.30;99.90;;;;;;5049765;28;20855;-49
2023/03/21 11:03:30;;;;;;;1.70;1.60;;;11.50;99.90;;;;;;5050175;28;21004;-49
2023/03/21 11:06:02;;;;;;;2.80;1.97;;;11.50;99.90;;;;;;5050059;28;20458;-49
2023/03/21 11:08:30;;;;;;;1.87;1.70;;;11.50;99.90;;;;;;5050287;28;20443;-49
2023/03/21 11:11:04;;;;;;;2.37;2.00;;;11.50;99.90;;;;;;5043324;28;20522;-49
2023/03/21 11:13:37;;;;;;;4.10;2.60;;;11.60;99.90;;;;;;5042352;28;20473;-49
2023/03/21 11:16:07;;;;;;;2.23;1.80;;;11.70;99.90;;;;;;5044692;28;20434;-49
2023/03/21 11:18:40;;;;;;;1.90;1.70;;;11.70;99.90;;;;;;5043748;28;20476;-49
2023/03/21 11:21:10;;;;;;;2.20;2.00;;;11.80;99.90;;;;;;5042787;28;20465;-49
2023/03/21 11:23:42;;;;;;;3.83;2.27;;;11.90;99.90;;;;;;5042695;28;20547;-49
2023/03/21 11:26:16;;;;;;;2.30;2.10;;;11.90;99.90;;;;;;5043285;28;20499;-49
2023/03/21 11:28:44;;;;;;;2.13;1.90;;;11.90;99.90;;;;;;5042303;28;20443;-49
2023/03/21 11:31:12;;;;;;;2.50;2.30;;;11.90;99.90;;;;;;5043395;28;20447;-49
2023/03/21 11:33:43;;;;;;;3.33;2.40;;;11.90;99.90;;;;;;5043306;28;20555;-53
2023/03/21 11:36:33;;;;;;;3.77;2.23;;;12.00;99.90;;;;;;5043378;28;20441;-49
2023/03/21 11:39:12;;;;;;;2.93;2.33;;;12.00;99.90;;;;;;5043483;28;20561;-49
2023/03/21 11:41:42;;;;;;;2.10;1.70;;;12.00;99.90;;;;;;5044035;28;20472;-49
2023/03/21 11:44:26;;;;;;;2.70;2.23;;;12.10;99.90;;;;;;5041759;28;20919;-49
2023/03/21 11:46:53;;;;;;;2.93;2.27;;;12.10;99.90;;;;;;5043516;28;20444;-49
2023/03/21 11:49:21;;;;;;;2.60;2.33;;;12.00;99.90;;;;;;5042227;28;20526;-50
2023/03/21 11:51:55;;;;;;;2.87;2.00;;;12.10;99.90;;;;;;5044845;28;20530;-49
2023/03/21 11:54:28;;;;;;;2.57;2.37;;;12.10;99.90;;;;;;5045903;28;20562;-50
2023/03/21 11:57:05;;;;;;;2.10;1.90;;;12.20;99.90;;;;;;5033470;28;20487;-49
2023/03/21 11:59:41;;;;;;;2.57;2.30;;;12.20;99.90;;;;;;5034112;28;20520;-50
2023/03/21 12:02:27;;;;;;;3.00;2.10;;;12.30;99.90;;;;;;5032972;28;20480;-49
2023/03/21 12:05:01;;;;;;;3.10;2.20;;;12.30;99.90;;;;;;5033271;28;21025;-49
2023/03/21 12:07:54;;;;;;;2.40;2.17;;;12.30;99.90;;;;;;5033414;28;20472;-49
2023/03/21 12:10:31;;;;;;;2.50;2.30;;;12.30;99.90;;;;;;5032018;28;20525;-50
2023/03/21 12:13:10;;;;;;;2.60;2.40;;;12.40;99.90;;;;;;5031424;28;20445;-50
2023/03/21 12:15:43;;;;;;;2.50;2.30;;;12.40;99.90;;;;;;5032048;28;20477;-51
2023/03/21 12:18:31;;;;;;;2.03;1.80;;;12.50;99.90;;;;;;5031922;28;21016;-50
2023/03/21 12:21:03;;;;;;;2.70;2.50;;;12.50;99.90;;;;;;5032484;28;20479;-49
2023/03/21 12:23:55;;;;;;;3.10;2.40;;;12.60;99.90;;;;;;5032315;28;20932;-49
2023/03/21 12:26:25;;;;;;;2.40;1.73;;;12.60;99.90;;;;;;5032836;28;20898;-51
2023/03/21 12:29:14;;;;;;;1.53;1.40;;;12.50;99.90;;;;;;5032999;28;20437;-50
2023/03/21 12:32:00;;;;;;;4.43;1.97;;;12.50;99.90;;;;;;5029582;28;20484;-49
2023/03/21 12:34:57;;;;;;;1.87;1.70;;;12.60;99.90;;;;;;5032193;28;21060;-49
2023/03/21 12:37:33;;;;;;;4.80;2.33;;;12.60;99.90;;;;;;5032583;28;21032;-50
2023/03/21 12:40:09;;;;;;;2.40;2.20;;;12.70;99.90;;;;;;5032079;28;20549;-49
2023/03/21 12:43:07;;;;;;;3.20;2.13;;;12.70;99.90;;;;;;5032163;28;20612;-50
2023/03/21 12:45:39;;;;;;;2.43;2.10;;;12.70;99.90;;;;;;5032734;28;20443;-49
2023/03/21 12:48:17;;;;;;;1.90;1.80;;;12.70;99.90;;;;;;5032424;28;20937;-49
2023/03/21 12:50:45;;;;;;;2.20;2.00;;;12.70;99.90;;;;;;5032328;28;20545;-49
2023/03/21 12:53:29;;;;;;;3.30;2.20;;;12.70;99.90;;;;;;5032416;28;20478;-49
2023/03/21 12:56:01;;;;;;;2.27;1.90;;;12.70;99.90;;;;;;5032443;28;20452;-49
2023/03/21 12:58:31;;;;;;;2.30;2.10;;;12.70;99.90;;;;;;5032063;28;21099;-49
2023/03/21 13:01:03;;;;;;;2.50;2.30;;;12.70;99.90;;;;;;5031749;28;20941;-49
2023/03/21 13:03:36;;;;;;;2.43;2.20;;;12.80;99.90;;;;;;5032110;28;20466;-49
2023/03/21 13:06:05;;;;;;;3.40;2.90;;;12.70;99.90;;;;;;5032439;28;20499;-49
2023/03/21 13:08:37;;;;;;;2.90;2.60;;;12.70;99.90;;;;;;5032012;28;20447;-49
2023/03/21 13:11:06;;;;;;;2.73;2.47;;;12.70;99.90;;;;;;5031449;28;20446;-49